VLG83XP LIRF-LEVC
Flight info
| Callsign | VLG83XP |
|---|---|
| Flight time | N/A |
| Altitude | 37000 |
| Route | ESINO DCT ABIDU DCT GOKMI DCT SUPUX DCT KUPIM DCT SUXER DCT MORSS DCT MHN DCT CDP DCT OLUTO DCT AKAMU DCT EPAMA DCT IXUPA N733 ARGOR |
| Aircraft | A21N/M-SDE2E3FGHIRWXY/LB1 |
Departure
| Time | 2026-05-01 13:53 |
|---|---|
| Airport | Rome–Fiumicino Leonardo da Vinci International Airport (LIRF) |
Arrival
| Time | N/A |
|---|---|
| Airport | Valencia Airport (LEVC) |
| Time | Latitude | Longitude | Altitude | Speed | Heading |
|---|---|---|---|---|---|
| 2026-05-01 13:34 | 41.79595 | 12.25763 | 19 ft | 0 kts | 115° |
| 2026-05-01 13:41 | 41.79599 | 12.25752 | 17 ft | 3 kts | 114° |
| 2026-05-01 13:42 | 41.79606 | 12.25727 | 19 ft | 3 kts | 100° |
| 2026-05-01 13:42 | 41.79607 | 12.25704 | 19 ft | 3 kts | 56° |
| 2026-05-01 13:42 | 41.79601 | 12.25695 | 19 ft | 1 kts | 25° |
| 2026-05-01 13:44 | 41.79612 | 12.25702 | 21 ft | 6 kts | 25° |
| 2026-05-01 13:45 | 41.79678 | 12.25744 | 18 ft | 15 kts | 25° |
| 2026-05-01 13:45 | 41.79788 | 12.25814 | 17 ft | 16 kts | 25° |
| 2026-05-01 13:45 | 41.79856 | 12.25802 | 17 ft | 10 kts | 306° |
| 2026-05-01 13:45 | 41.79883 | 12.25737 | 17 ft | 3 kts | 293° |
| 2026-05-01 13:46 | 41.79909 | 12.25656 | 17 ft | 15 kts | 293° |
| 2026-05-01 13:46 | 41.79967 | 12.25493 | 17 ft | 19 kts | 295° |
| 2026-05-01 13:46 | 41.80025 | 12.25330 | 17 ft | 20 kts | 296° |
| 2026-05-01 13:46 | 41.80081 | 12.25149 | 17 ft | 22 kts | 289° |
| 2026-05-01 13:47 | 41.80107 | 12.24953 | 17 ft | 22 kts | 278° |
| 2026-05-01 13:47 | 41.80077 | 12.24760 | 17 ft | 22 kts | 250° |
| 2026-05-01 13:47 | 41.80022 | 12.24559 | 16 ft | 24 kts | 250° |
| 2026-05-01 13:47 | 41.79963 | 12.24341 | 17 ft | 26 kts | 250° |
| 2026-05-01 13:48 | 41.79918 | 12.24110 | 17 ft | 25 kts | 270° |
| 2026-05-01 13:48 | 41.79874 | 12.23888 | 17 ft | 25 kts | 250° |
| 2026-05-01 13:48 | 41.79813 | 12.23716 | 18 ft | 9 kts | 210° |
| 2026-05-01 13:48 | 41.79764 | 12.23716 | 19 ft | 6 kts | 155° |
| 2026-05-01 13:49 | 41.79722 | 12.23734 | 17 ft | 9 kts | 165° |
| 2026-05-01 13:49 | 41.79624 | 12.23772 | 17 ft | 20 kts | 162° |
| 2026-05-01 13:49 | 41.79477 | 12.23834 | 19 ft | 23 kts | 162° |
| 2026-05-01 13:49 | 41.79318 | 12.23901 | 18 ft | 25 kts | 162° |
| 2026-05-01 13:50 | 41.79151 | 12.23975 | 19 ft | 26 kts | 161° |
| 2026-05-01 13:50 | 41.78974 | 12.24042 | 21 ft | 26 kts | 159° |
| 2026-05-01 13:50 | 41.78803 | 12.24120 | 19 ft | 26 kts | 162° |
| 2026-05-01 13:50 | 41.78623 | 12.24195 | 18 ft | 28 kts | 165° |
| 2026-05-01 13:51 | 41.78435 | 12.24269 | 19 ft | 29 kts | 161° |
| 2026-05-01 13:51 | 41.78267 | 12.24332 | 19 ft | 20 kts | 179° |
| 2026-05-01 13:51 | 41.78211 | 12.24269 | 18 ft | 9 kts | 256° |
| 2026-05-01 13:51 | 41.78197 | 12.24181 | 18 ft | 9 kts | 272° |
| 2026-05-01 13:52 | 41.78218 | 12.24113 | 18 ft | 8 kts | 298° |
| 2026-05-01 13:52 | 41.78244 | 12.24050 | 19 ft | 8 kts | 298° |
| 2026-05-01 13:52 | 41.78275 | 12.24019 | 20 ft | 0 kts | 343° |
| 2026-05-01 13:52 | 41.78331 | 12.23996 | 20 ft | 35 kts | 343° |
| 2026-05-01 13:53 | 41.78863 | 12.23773 | 20 ft | 122 kts | 343° |
| 2026-05-01 13:53 | 41.80981 | 12.22812 | 878 ft | 178 kts | 342° |
| 2026-05-01 13:53 | 41.82257 | 12.22149 | 751 ft | 210 kts | 341° |
| 2026-05-01 13:54 | 41.83606 | 12.21501 | 420 ft | 196 kts | 342° |
| 2026-05-01 13:54 | 41.84832 | 12.21051 | 282 ft | 178 kts | 352° |
| 2026-05-01 13:54 | 41.86031 | 12.20743 | 54 ft | 171 kts | 349° |
| 2026-05-01 13:54 | 41.86483 | 12.20580 | 24 ft | 0 kts | 345° |
| 2026-05-01 13:55 | 41.86678 | 12.20516 | 22 ft | 74 kts | 349° |
| 2026-05-01 13:55 | 41.87500 | 12.20372 | 189 ft | 150 kts | 354° |
| 2026-05-01 13:56 | 41.88575 | 12.20167 | 1259 ft | 162 kts | 355° |
| 2026-05-01 13:56 | 41.89712 | 12.19941 | 2444 ft | 166 kts | 354° |
| 2026-05-01 13:56 | 41.90861 | 12.19601 | 3435 ft | 181 kts | 342° |
| 2026-05-01 13:56 | 41.91941 | 12.18440 | 4228 ft | 222 kts | 304° |
| 2026-05-01 13:57 | 41.92267 | 12.16305 | 5042 ft | 250 kts | 264° |
| 2026-05-01 13:57 | 41.91889 | 12.14805 | 5620 ft | 266 kts | 240° |
| 2026-05-01 13:57 | 41.89907 | 12.12753 | 7016 ft | 280 kts | 198° |
| 2026-05-01 13:57 | 41.88022 | 12.12000 | 8139 ft | 287 kts | 195° |
| 2026-05-01 13:58 | 41.86090 | 12.11154 | 9195 ft | 297 kts | 198° |
| 2026-05-01 13:58 | 41.84143 | 12.10124 | 10038 ft | 305 kts | 202° |
| 2026-05-01 13:58 | 41.82193 | 12.08955 | 10887 ft | 321 kts | 204° |
| 2026-05-01 13:58 | 41.80082 | 12.07607 | 11569 ft | 341 kts | 205° |
| 2026-05-01 13:59 | 41.77913 | 12.06170 | 12506 ft | 353 kts | 206° |
| 2026-05-01 13:59 | 41.75696 | 12.04679 | 13565 ft | 360 kts | 207° |
| 2026-05-01 13:59 | 41.73431 | 12.03144 | 14527 ft | 370 kts | 207° |
| 2026-05-01 13:59 | 41.71107 | 12.01565 | 15368 ft | 380 kts | 207° |
| 2026-05-01 14:00 | 41.68722 | 11.99944 | 16243 ft | 389 kts | 207° |
| 2026-05-01 14:00 | 41.66283 | 11.98287 | 17105 ft | 397 kts | 207° |
| 2026-05-01 14:00 | 41.63825 | 11.96617 | 17944 ft | 405 kts | 207° |
| 2026-05-01 14:00 | 41.61285 | 11.94893 | 18744 ft | 413 kts | 207° |
| 2026-05-01 14:01 | 41.58698 | 11.93139 | 19489 ft | 421 kts | 207° |
| 2026-05-01 14:01 | 41.56076 | 11.91364 | 20315 ft | 424 kts | 208° |
| 2026-05-01 14:01 | 41.53433 | 11.89576 | 21175 ft | 429 kts | 208° |
| 2026-05-01 14:01 | 41.50739 | 11.87753 | 21894 ft | 436 kts | 208° |
| 2026-05-01 14:02 | 41.48015 | 11.85911 | 22602 ft | 443 kts | 208° |
| 2026-05-01 14:02 | 41.45242 | 11.84038 | 23294 ft | 449 kts | 208° |
| 2026-05-01 14:02 | 41.42463 | 11.82074 | 23932 ft | 455 kts | 213° |
| 2026-05-01 14:02 | 41.39940 | 11.79547 | 24526 ft | 453 kts | 228° |
| 2026-05-01 14:03 | 41.37956 | 11.76349 | 25166 ft | 444 kts | 244° |
| 2026-05-01 14:03 | 41.36575 | 11.72758 | 26115 ft | 427 kts | 253° |
| 2026-05-01 14:03 | 41.35456 | 11.69122 | 26863 ft | 423 kts | 257° |
| 2026-05-01 14:03 | 41.34453 | 11.65432 | 27334 ft | 426 kts | 259° |
| 2026-05-01 14:04 | 41.33503 | 11.61732 | 27839 ft | 429 kts | 259° |
| 2026-05-01 14:04 | 41.32543 | 11.57965 | 28394 ft | 431 kts | 259° |
| 2026-05-01 14:04 | 41.31565 | 11.54192 | 28971 ft | 432 kts | 258° |
| 2026-05-01 14:04 | 41.30891 | 11.51641 | 29340 ft | 434 kts | 258° |
| 2026-05-01 14:05 | 41.29530 | 11.46575 | 30043 ft | 436 kts | 258° |
| 2026-05-01 14:05 | 41.28506 | 11.42822 | 30507 ft | 438 kts | 257° |
| 2026-05-01 14:05 | 41.27459 | 11.39012 | 30931 ft | 439 kts | 257° |
| 2026-05-01 14:05 | 41.26407 | 11.35197 | 31382 ft | 440 kts | 257° |
| 2026-05-01 14:06 | 41.25351 | 11.31378 | 31843 ft | 440 kts | 257° |
| 2026-05-01 14:06 | 41.24300 | 11.27583 | 32342 ft | 436 kts | 256° |
| 2026-05-01 14:06 | 41.23257 | 11.23822 | 32949 ft | 432 kts | 256° |
| 2026-05-01 14:06 | 41.22224 | 11.20103 | 33589 ft | 426 kts | 257° |
| 2026-05-01 14:07 | 41.21203 | 11.16434 | 34254 ft | 420 kts | 257° |
| 2026-05-01 14:07 | 41.20195 | 11.12807 | 34691 ft | 418 kts | 257° |
| 2026-05-01 14:07 | 41.19191 | 11.09184 | 35004 ft | 419 kts | 257° |
| 2026-05-01 14:08 | 41.17173 | 11.01909 | 35604 ft | 420 kts | 256° |
| 2026-05-01 14:08 | 41.16160 | 10.98273 | 35931 ft | 420 kts | 256° |
| 2026-05-01 14:08 | 41.15143 | 10.94628 | 36239 ft | 420 kts | 256° |
| 2026-05-01 14:08 | 41.14126 | 10.90993 | 36536 ft | 421 kts | 256° |
| 2026-05-01 14:09 | 41.13106 | 10.87352 | 36847 ft | 421 kts | 256° |
| 2026-05-01 14:09 | 41.12083 | 10.83709 | 37143 ft | 421 kts | 256° |
| 2026-05-01 14:09 | 41.11060 | 10.80066 | 37232 ft | 422 kts | 256° |
| 2026-05-01 14:10 | 41.09007 | 10.72783 | 37236 ft | 421 kts | 256° |
| 2026-05-01 14:10 | 41.06952 | 10.65508 | 37237 ft | 421 kts | 256° |
| 2026-05-01 14:11 | 41.04899 | 10.58267 | 37235 ft | 417 kts | 256° |
| 2026-05-01 14:11 | 41.01849 | 10.47540 | 37243 ft | 414 kts | 256° |
| 2026-05-01 14:12 | 40.99832 | 10.40460 | 37248 ft | 413 kts | 256° |
| 2026-05-01 14:12 | 40.97882 | 10.33316 | 37237 ft | 412 kts | 258° |
| 2026-05-01 14:13 | 40.96387 | 10.27296 | 37252 ft | 411 kts | 258° |
| 2026-05-01 14:13 | 40.94346 | 10.18929 | 37236 ft | 411 kts | 258° |
| 2026-05-01 14:14 | 40.92568 | 10.11740 | 37249 ft | 410 kts | 258° |
| 2026-05-01 14:14 | 40.90780 | 10.04583 | 37234 ft | 409 kts | 257° |
| 2026-05-01 14:15 | 40.88992 | 9.97468 | 37254 ft | 406 kts | 257° |
| 2026-05-01 14:15 | 40.87209 | 9.90390 | 37257 ft | 406 kts | 257° |
| 2026-05-01 14:16 | 40.85726 | 9.84515 | 37258 ft | 406 kts | 257° |
| 2026-05-01 14:16 | 40.83939 | 9.77449 | 37265 ft | 406 kts | 257° |
| 2026-05-01 14:17 | 40.82144 | 9.70376 | 37258 ft | 406 kts | 257° |
| 2026-05-01 14:17 | 40.80346 | 9.63314 | 37259 ft | 406 kts | 257° |
| 2026-05-01 14:18 | 40.78543 | 9.56255 | 37265 ft | 406 kts | 257° |
| 2026-05-01 14:18 | 40.76737 | 9.49202 | 37241 ft | 406 kts | 257° |
| 2026-05-01 14:19 | 40.74924 | 9.42140 | 37251 ft | 407 kts | 256° |
| 2026-05-01 14:19 | 40.73105 | 9.35079 | 37238 ft | 407 kts | 256° |
| 2026-05-01 14:20 | 40.70379 | 9.24533 | 37236 ft | 407 kts | 256° |
| 2026-05-01 14:21 | 40.68547 | 9.17475 | 37229 ft | 407 kts | 256° |
| 2026-05-01 14:21 | 40.66714 | 9.10431 | 37225 ft | 407 kts | 256° |
| 2026-05-01 14:22 | 40.63949 | 8.99843 | 37216 ft | 408 kts | 255° |
| 2026-05-01 14:22 | 40.62100 | 8.92788 | 37211 ft | 408 kts | 255° |
| 2026-05-01 14:23 | 40.60248 | 8.85742 | 37211 ft | 408 kts | 255° |
| 2026-05-01 14:23 | 40.58391 | 8.78696 | 37205 ft | 408 kts | 255° |
| 2026-05-01 14:24 | 40.56530 | 8.71659 | 37186 ft | 406 kts | 255° |
| 2026-05-01 14:24 | 40.54672 | 8.64648 | 37199 ft | 405 kts | 254° |
| 2026-05-01 14:25 | 40.52813 | 8.57655 | 37195 ft | 405 kts | 254° |
| 2026-05-01 14:25 | 40.50948 | 8.50662 | 37196 ft | 405 kts | 254° |
| 2026-05-01 14:26 | 40.48154 | 8.40219 | 37188 ft | 405 kts | 254° |
| 2026-05-01 14:27 | 40.46279 | 8.33232 | 37179 ft | 405 kts | 253° |
| 2026-05-01 14:27 | 40.44435 | 8.26230 | 37188 ft | 404 kts | 257° |
| 2026-05-01 14:28 | 40.43270 | 8.15370 | 37192 ft | 400 kts | 267° |
| 2026-05-01 14:28 | 40.42877 | 8.08135 | 37194 ft | 400 kts | 268° |
| 2026-05-01 14:29 | 40.42479 | 8.00852 | 37199 ft | 401 kts | 265° |
| 2026-05-01 14:30 | 40.40776 | 7.86361 | 37211 ft | 402 kts | 262° |
| 2026-05-01 14:31 | 40.39388 | 7.75571 | 37210 ft | 401 kts | 262° |
| 2026-05-01 14:31 | 40.38453 | 7.68304 | 37208 ft | 402 kts | 262° |
| 2026-05-01 14:32 | 40.37530 | 7.61128 | 37208 ft | 401 kts | 262° |
| 2026-05-01 14:32 | 40.36596 | 7.53890 | 37213 ft | 402 kts | 262° |
| 2026-05-01 14:33 | 40.35656 | 7.46657 | 37213 ft | 402 kts | 262° |
| 2026-05-01 14:33 | 40.34714 | 7.39436 | 37211 ft | 402 kts | 262° |
| 2026-05-01 14:34 | 40.33766 | 7.32214 | 37210 ft | 402 kts | 262° |
| 2026-05-01 14:34 | 40.32815 | 7.24997 | 37211 ft | 402 kts | 262° |
| 2026-05-01 14:35 | 40.31860 | 7.17769 | 37215 ft | 402 kts | 262° |
| 2026-05-01 14:35 | 40.30902 | 7.10558 | 37216 ft | 402 kts | 262° |
| 2026-05-01 14:36 | 40.29938 | 7.03344 | 37218 ft | 402 kts | 262° |
| 2026-05-01 14:36 | 40.28970 | 6.96129 | 37219 ft | 402 kts | 262° |
| 2026-05-01 14:37 | 40.28004 | 6.88961 | 37214 ft | 402 kts | 262° |
| 2026-05-01 14:37 | 40.27027 | 6.81745 | 37210 ft | 402 kts | 261° |
| 2026-05-01 14:38 | 40.26047 | 6.74547 | 37216 ft | 401 kts | 261° |
| 2026-05-01 14:38 | 40.25062 | 6.67357 | 37218 ft | 401 kts | 261° |
| 2026-05-01 14:39 | 40.24074 | 6.60168 | 37218 ft | 401 kts | 261° |
| 2026-05-01 14:39 | 40.23081 | 6.52979 | 37221 ft | 401 kts | 261° |
| 2026-05-01 14:40 | 40.22091 | 6.45847 | 37221 ft | 401 kts | 260° |
| 2026-05-01 14:40 | 40.21088 | 6.38652 | 37221 ft | 402 kts | 260° |
| 2026-05-01 14:41 | 40.20079 | 6.31451 | 37220 ft | 402 kts | 260° |
| 2026-05-01 14:41 | 40.19065 | 6.24253 | 37221 ft | 402 kts | 260° |
| 2026-05-01 14:42 | 40.18045 | 6.17043 | 37222 ft | 402 kts | 260° |
| 2026-05-01 14:42 | 40.17024 | 6.09857 | 37221 ft | 402 kts | 260° |
| 2026-05-01 14:43 | 40.15997 | 6.02655 | 37224 ft | 403 kts | 259° |
| 2026-05-01 14:43 | 40.14963 | 5.95450 | 37221 ft | 403 kts | 259° |
| 2026-05-01 14:44 | 40.13925 | 5.88246 | 37221 ft | 403 kts | 259° |
| 2026-05-01 14:44 | 40.12365 | 5.77492 | 37221 ft | 403 kts | 259° |
| 2026-05-01 14:45 | 40.10790 | 5.66697 | 37218 ft | 403 kts | 259° |
| 2026-05-01 14:46 | 40.09734 | 5.59511 | 37219 ft | 403 kts | 259° |
| 2026-05-01 14:46 | 40.08143 | 5.48739 | 37225 ft | 403 kts | 259° |
| 2026-05-01 14:47 | 40.07076 | 5.41558 | 37217 ft | 403 kts | 259° |
| 2026-05-01 14:48 | 40.05469 | 5.30797 | 37226 ft | 403 kts | 258° |
| 2026-05-01 14:48 | 40.03841 | 5.19970 | 37229 ft | 412 kts | 258° |
| 2026-05-01 14:49 | 40.02714 | 5.12512 | 37224 ft | 426 kts | 258° |
| 2026-05-01 14:49 | 40.01565 | 5.04949 | 37219 ft | 428 kts | 258° |
| 2026-05-01 14:50 | 39.99238 | 4.89726 | 37219 ft | 429 kts | 258° |
| 2026-05-01 14:51 | 39.97473 | 4.78278 | 37214 ft | 429 kts | 258° |
| 2026-05-01 14:52 | 39.95687 | 4.66836 | 37219 ft | 429 kts | 257° |
| 2026-05-01 14:53 | 39.93459 | 4.55538 | 37213 ft | 429 kts | 254° |
| 2026-05-01 14:53 | 39.91870 | 4.48050 | 37215 ft | 429 kts | 254° |
| 2026-05-01 14:54 | 39.90294 | 4.40538 | 37213 ft | 429 kts | 254° |
| 2026-05-01 14:54 | 39.88733 | 4.33033 | 37214 ft | 429 kts | 254° |
| 2026-05-01 14:55 | 39.87183 | 4.25578 | 37212 ft | 429 kts | 254° |
| 2026-05-01 14:55 | 39.85619 | 4.18075 | 37211 ft | 429 kts | 254° |
| 2026-05-01 14:56 | 39.84048 | 4.10559 | 37214 ft | 431 kts | 254° |
| 2026-05-01 14:56 | 39.82469 | 4.03033 | 37209 ft | 431 kts | 254° |
| 2026-05-01 14:57 | 39.80884 | 3.95504 | 37206 ft | 431 kts | 254° |
| 2026-05-01 14:57 | 39.78510 | 3.84276 | 37204 ft | 431 kts | 254° |
| 2026-05-01 14:58 | 39.76916 | 3.76768 | 37208 ft | 431 kts | 253° |
| 2026-05-01 14:58 | 39.75310 | 3.69234 | 37203 ft | 432 kts | 253° |
| 2026-05-01 14:59 | 39.73701 | 3.61708 | 37201 ft | 432 kts | 253° |
| 2026-05-01 14:59 | 39.72089 | 3.54199 | 37206 ft | 431 kts | 253° |
| 2026-05-01 15:00 | 39.69911 | 3.42906 | 37207 ft | 432 kts | 262° |
| 2026-05-01 15:01 | 39.69480 | 3.36394 | 37208 ft | 433 kts | 265° |
| 2026-05-01 15:01 | 39.69160 | 3.28584 | 37206 ft | 433 kts | 266° |
| 2026-05-01 15:02 | 39.68885 | 3.20775 | 37200 ft | 433 kts | 266° |
| 2026-05-01 15:02 | 39.68595 | 3.12969 | 37198 ft | 433 kts | 265° |
| 2026-05-01 15:03 | 39.68286 | 3.05182 | 37201 ft | 433 kts | 265° |
| 2026-05-01 15:03 | 39.67964 | 2.97350 | 37197 ft | 436 kts | 265° |
| 2026-05-01 15:04 | 39.67636 | 2.89470 | 37192 ft | 436 kts | 265° |
| 2026-05-01 15:04 | 39.67303 | 2.81601 | 37190 ft | 436 kts | 265° |
| 2026-05-01 15:05 | 39.66966 | 2.73741 | 36953 ft | 434 kts | 265° |
| 2026-05-01 15:05 | 39.66797 | 2.69832 | 36691 ft | 434 kts | 265° |
| 2026-05-01 15:05 | 39.66628 | 2.65969 | 36445 ft | 435 kts | 265° |
| 2026-05-01 15:05 | 39.66454 | 2.62045 | 36185 ft | 436 kts | 265° |
| 2026-05-01 15:06 | 39.66279 | 2.58111 | 35925 ft | 437 kts | 265° |
| 2026-05-01 15:06 | 39.66101 | 2.54166 | 35679 ft | 437 kts | 265° |
| 2026-05-01 15:06 | 39.65922 | 2.50220 | 35429 ft | 438 kts | 265° |
| 2026-05-01 15:06 | 39.65742 | 2.46274 | 35189 ft | 438 kts | 265° |
| 2026-05-01 15:07 | 39.65561 | 2.42321 | 34944 ft | 439 kts | 265° |
| 2026-05-01 15:07 | 39.65378 | 2.38354 | 34703 ft | 440 kts | 265° |
| 2026-05-01 15:07 | 39.65195 | 2.34393 | 34465 ft | 440 kts | 265° |
| 2026-05-01 15:07 | 39.65010 | 2.30427 | 34228 ft | 441 kts | 265° |
| 2026-05-01 15:08 | 39.64825 | 2.26474 | 33746 ft | 436 kts | 265° |
| 2026-05-01 15:08 | 39.64642 | 2.22602 | 32978 ft | 434 kts | 265° |
| 2026-05-01 15:08 | 39.64454 | 2.18659 | 32198 ft | 432 kts | 265° |
| 2026-05-01 15:08 | 39.64269 | 2.14825 | 31438 ft | 430 kts | 265° |
| 2026-05-01 15:09 | 39.64082 | 2.10958 | 30659 ft | 428 kts | 265° |
| 2026-05-01 15:09 | 39.63894 | 2.07102 | 29779 ft | 428 kts | 265° |
| 2026-05-01 15:09 | 39.63705 | 2.03247 | 28895 ft | 428 kts | 265° |
| 2026-05-01 15:09 | 39.63515 | 1.99386 | 28018 ft | 430 kts | 265° |
| 2026-05-01 15:10 | 39.63323 | 1.95504 | 27121 ft | 433 kts | 265° |
| 2026-05-01 15:10 | 39.62932 | 1.87712 | 25202 ft | 437 kts | 265° |
| 2026-05-01 15:10 | 39.62732 | 1.83764 | 24427 ft | 443 kts | 265° |
| 2026-05-01 15:11 | 39.62522 | 1.79672 | 24194 ft | 463 kts | 265° |
| 2026-05-01 15:11 | 39.62087 | 1.71269 | 23733 ft | 468 kts | 265° |
| 2026-05-01 15:11 | 39.61869 | 1.67065 | 23461 ft | 466 kts | 265° |
| 2026-05-01 15:12 | 39.61651 | 1.62876 | 23188 ft | 465 kts | 265° |
| 2026-05-01 15:12 | 39.61211 | 1.54549 | 22650 ft | 461 kts | 264° |
| 2026-05-01 15:12 | 39.60988 | 1.50407 | 22397 ft | 460 kts | 265° |
| 2026-05-01 15:13 | 39.60318 | 1.38061 | 21619 ft | 455 kts | 265° |
| 2026-05-01 15:14 | 39.59869 | 1.29921 | 21116 ft | 451 kts | 265° |
| 2026-05-01 15:14 | 39.59642 | 1.25863 | 20865 ft | 450 kts | 265° |
| 2026-05-01 15:14 | 39.59188 | 1.17812 | 20369 ft | 447 kts | 265° |
| 2026-05-01 15:15 | 39.58730 | 1.09803 | 19887 ft | 443 kts | 265° |
| 2026-05-01 15:15 | 39.58271 | 1.01855 | 19413 ft | 440 kts | 265° |
| 2026-05-01 15:16 | 39.57810 | 0.93967 | 18945 ft | 438 kts | 265° |
| 2026-05-01 15:16 | 39.57347 | 0.86132 | 18476 ft | 435 kts | 265° |
| 2026-05-01 15:17 | 39.56881 | 0.78342 | 17936 ft | 432 kts | 265° |
| 2026-05-01 15:18 | 39.56205 | 0.67203 | 15952 ft | 399 kts | 265° |
| 2026-05-01 15:18 | 39.55987 | 0.63649 | 15223 ft | 390 kts | 265° |
| 2026-05-01 15:19 | 39.55333 | 0.53084 | 13352 ft | 402 kts | 265° |
| 2026-05-01 15:19 | 39.54879 | 0.45835 | 13200 ft | 394 kts | 265° |
| 2026-05-01 15:19 | 39.54669 | 0.42496 | 13181 ft | 349 kts | 265° |
| 2026-05-01 15:20 | 39.54311 | 0.36855 | 13188 ft | 300 kts | 265° |
| 2026-05-01 15:20 | 39.54140 | 0.34172 | 13199 ft | 298 kts | 265° |
| 2026-05-01 15:20 | 39.53987 | 0.31500 | 13197 ft | 298 kts | 268° |
| 2026-05-01 15:21 | 39.54197 | 0.28834 | 13201 ft | 298 kts | 283° |
| 2026-05-01 15:21 | 39.54800 | 0.26263 | 13204 ft | 299 kts | 288° |
| 2026-05-01 15:21 | 39.55491 | 0.23720 | 13201 ft | 299 kts | 288° |
| 2026-05-01 15:21 | 39.56190 | 0.21186 | 13204 ft | 298 kts | 289° |
| 2026-05-01 15:22 | 39.57578 | 0.16105 | 13199 ft | 299 kts | 288° |
| 2026-05-01 15:22 | 39.58266 | 0.13565 | 13205 ft | 298 kts | 288° |
| 2026-05-01 15:22 | 39.58950 | 0.11036 | 13188 ft | 297 kts | 288° |
| 2026-05-01 15:23 | 39.59626 | 0.08524 | 12864 ft | 293 kts | 288° |
| 2026-05-01 15:23 | 39.60292 | 0.06045 | 12227 ft | 294 kts | 288° |
| 2026-05-01 15:23 | 39.60967 | 0.03530 | 11595 ft | 294 kts | 288° |
| 2026-05-01 15:23 | 39.61638 | 0.01022 | 11033 ft | 293 kts | 288° |
| 2026-05-01 15:24 | 39.62300 | -0.01451 | 10432 ft | 295 kts | 288° |
| 2026-05-01 15:24 | 39.62967 | -0.03955 | 10058 ft | 292 kts | 288° |
| 2026-05-01 15:24 | 39.63631 | -0.06439 | 9684 ft | 290 kts | 288° |
| 2026-05-01 15:24 | 39.64285 | -0.08903 | 9161 ft | 288 kts | 288° |
| 2026-05-01 15:25 | 39.64941 | -0.11356 | 8570 ft | 287 kts | 289° |
| 2026-05-01 15:25 | 39.65593 | -0.13797 | 8011 ft | 284 kts | 288° |
| 2026-05-01 15:25 | 39.66302 | -0.16178 | 7436 ft | 284 kts | 297° |
| 2026-05-01 15:25 | 39.67481 | -0.18220 | 6920 ft | 281 kts | 311° |
| 2026-05-01 15:26 | 39.68794 | -0.20084 | 6359 ft | 279 kts | 315° |
| 2026-05-01 15:26 | 39.70191 | -0.21830 | 5809 ft | 277 kts | 316° |
| 2026-05-01 15:26 | 39.71511 | -0.23615 | 5367 ft | 271 kts | 312° |
| 2026-05-01 15:26 | 39.72665 | -0.25430 | 5212 ft | 248 kts | 309° |
| 2026-05-01 15:27 | 39.73635 | -0.27187 | 5201 ft | 234 kts | 306° |
| 2026-05-01 15:27 | 39.74506 | -0.28977 | 5101 ft | 236 kts | 302° |
| 2026-05-01 15:27 | 39.75296 | -0.30841 | 4998 ft | 235 kts | 299° |
| 2026-05-01 15:28 | 39.76614 | -0.34716 | 4984 ft | 235 kts | 292° |
| 2026-05-01 15:28 | 39.77147 | -0.36728 | 4991 ft | 236 kts | 289° |
| 2026-05-01 15:28 | 39.77596 | -0.38782 | 4991 ft | 236 kts | 286° |
| 2026-05-01 15:29 | 39.78229 | -0.42977 | 4994 ft | 237 kts | 279° |
| 2026-05-01 15:29 | 39.78411 | -0.45102 | 4989 ft | 237 kts | 276° |
| 2026-05-01 15:29 | 39.78506 | -0.49266 | 4573 ft | 230 kts | 270° |
| 2026-05-01 15:30 | 39.78250 | -0.53479 | 3764 ft | 234 kts | 263° |
| 2026-05-01 15:31 | 39.76722 | -0.61566 | 3706 ft | 234 kts | 251° |
| 2026-05-01 15:31 | 39.75443 | -0.65471 | 3704 ft | 235 kts | 244° |
| 2026-05-01 15:32 | 39.73844 | -0.69168 | 3700 ft | 234 kts | 238° |
| 2026-05-01 15:32 | 39.71953 | -0.72601 | 3696 ft | 233 kts | 231° |
| 2026-05-01 15:33 | 39.68626 | -0.77180 | 3701 ft | 231 kts | 220° |
| 2026-05-01 15:34 | 39.64560 | -0.79870 | 3689 ft | 218 kts | 171° |